Flight Track Log - Related Links

Times and Time Zones

All times are in EDT time to prevent confusion due to time zone crossing. See the N50LD flight status page for this flight to view local times or setup timezone preferences in your user account.

Time Position Orientation Groundspeed Altitude Reporting Facility
EDT Latitude Longitude Course Direction KTS MPH feet Rate Location/Type
Mon 03:10:01 PM 39.8500 -86.2833 21° North 162 186 1,200  Level Indianapolis TRACON
Mon 03:10:55 PM 39.8833 -86.2667 21° North 206 237 3,000 1,521 Climbing Indianapolis TRACON
Mon 03:11:12 PM 39.8981 -86.2811 323° Northwest 207 238 3,000 1,671 Level Chicago Center
Mon 03:12:14 PM 39.9411 -86.3217 324° Northwest 192 221 5,200 3,194 Climbing Chicago Center
Mon 03:13:16 PM 39.9939 -86.3639 328° Northwest 211 243 9,600 4,016 Climbing Chicago Center
Mon 03:14:18 PM 40.0506 -86.4206 323° Northwest 213 245 13,500 3,435 Climbing Chicago Center
Mon 03:15:20 PM 40.0967 -86.4692 321° Northwest 214 246 16,700 2,855 Climbing Chicago Center
Mon 03:16:22 PM 40.1453 -86.5147 324° Northwest 214 246 19,400 2,371 Climbing Chicago Center
Mon 03:17:24 PM 40.1928 -86.5622 323° Northwest 215 247 21,600 1,258 Climbing Chicago Center
Mon 03:18:26 PM 40.2500 -86.6161 324° Northwest 252 290 22,000 194 Climbing Chicago Center
Mon 03:19:28 PM 40.3247 -86.6906 323° Northwest 281 323 22,000  Level Chicago Center
Mon 03:20:31 PM 40.3892 -86.7528 324° Northwest 286 329 22,000  Level Chicago Center
Mon 03:21:33 PM 40.4536 -86.8158 323° Northwest 289 333 22,000  Level Chicago Center
Mon 03:22:35 PM 40.5183 -86.8797 323° Northwest 290 334 22,000  Level Chicago Center
Mon 03:23:37 PM 40.5833 -86.9442 323° Northwest 293 337 22,000  Level Chicago Center
Mon 03:24:39 PM 40.6608 -87.0211 323° Northwest 291 335 22,000  Level Chicago Center
Mon 03:25:41 PM 40.7228 -87.0842 322° Northwest 290 334 22,000  Level Chicago Center
Mon 03:26:43 PM 40.7875 -87.1472 324° Northwest 290 334 22,000  Level Chicago Center
Mon 03:27:45 PM 40.8506 -87.2125 322° Northwest 288 331 22,000  Level Chicago Center
Mon 03:28:47 PM 40.9283 -87.2881 324° Northwest 289 333 22,000  Level Chicago Center
Mon 03:29:49 PM 40.9933 -87.3514 324° Northwest 290 334 22,000  Level Chicago Center
Mon 03:30:52 PM 41.0581 -87.4158 323° Northwest 291 335 22,000  Level Chicago Center
Mon 03:31:54 PM 41.1219 -87.4822 322° Northwest 292 336 22,000  Level Chicago Center
Mon 03:32:56 PM 41.1864 -87.5472 323° Northwest 293 337 22,000  Level Chicago Center
Mon 03:33:58 PM 41.2642 -87.6275 322° Northwest 296 341 22,000  Level Chicago Center
Mon 03:35:00 PM 41.3300 -87.6936 323° Northwest 298 343 22,000  Level Chicago Center
Mon 03:36:02 PM 41.3950 -87.7608 322° Northwest 300 345 22,000  Level Chicago Center
Mon 03:37:04 PM 41.4603 -87.8261 323° Northwest 298 343 22,000  Level Chicago Center
Mon 03:38:06 PM 41.5242 -87.8931 322° Northwest 298 343 22,000  Level Chicago Center
Mon 03:39:08 PM 41.6017 -87.9714 323° Northwest 297 342 22,000  Level Chicago Center
Mon 03:40:10 PM 41.6667 -88.0381 323° Northwest 299 344 22,000  Level Chicago Center
Mon 03:41:13 PM 41.7317 -88.1056 322° Northwest 298 343 22,000  Level Chicago Center
Mon 03:42:15 PM 41.7981 -88.1733 323° Northwest 302 348 22,000 -290 Level Chicago Center
Mon 03:44:19 PM 41.8633 -88.3936 292° West 336 387 21,100 -674 Descending Chicago Center
Mon 03:45:22 PM 41.8486 -88.5253 262° West 357 411 19,900 -1,306 Descending Chicago Center
Mon 03:46:23 PM 41.8283 -88.6517 258° West 356 410 18,400 -1,463 Descending Chicago Center
Mon 03:47:25 PM 41.8114 -88.7956 261° West 335 386 16,900 -1,403 Descending Chicago Center
Mon 03:48:27 PM 41.8689 -88.8636 319° Northwest 290 334 15,500 -1,500 Descending Chicago Center
Mon 03:49:29 PM 41.9475 -88.8844 349° North 284 327 13,800 -1,645 Descending Chicago Center
Mon 03:50:31 PM 42.0289 -88.9044 350° North 296 341 12,100 -1,694 Descending Chicago Center
Mon 03:51:33 PM 42.1097 -88.9253 349° North 291 335 10,300 -1,632 Descending Chicago Center
Mon 03:52:36 PM 42.1875 -88.9408 352° North 283 326 8,700 -1,632 Descending Chicago Center
Mon 03:53:38 PM 42.2636 -88.9606 349° North 240 276 6,900 -1,597 Descending Chicago Center
Mon 03:54:40 PM 42.3289 -88.9731 352° North 235 270 5,400 -1,452 Descending Chicago Center
Mon 03:55:42 PM 42.3956 -88.9911 349° North 240 276 3,900 -1,210 Descending Chicago Center
Mon 03:56:44 PM 42.4631 -89.0008 354° North 244 281 2,900 -774 Descending Chicago Center
Mon 03:57:46 PM 42.5225 -89.0039 358° North 230 265 2,300 -532 Descending Chicago Center
Mon 03:58:48 PM 42.5806 -89.0083 357° North 208 239 1,800 -484 Descending Chicago Center
Mon 04:00:00 PM 42.6167 -89.0333 348° North  Level FlightAware Approximate
Mon 04:07:00 PM 42.6203 -89.0416 348° North  Level Estimated
Mon 04:08:00 PM 42.6167 -89.0333 348° North  Level FlightAware Approximate

Login

Don't have an account? Register now (free) for customized features, flight alerts, and more!